Terminal Aerodrome Forecast
Issued by NWS

Home | Current Version | Previous Version | Text Only | Print | Product List | Glossary On
Versions: 1 2 3 4 5 6 7 8 9 10 11 12 13
000
FTUS45 KABQ 282339
TAFROW
TAF
KROW 282339Z 2900/2924 35010KT P6SM VCTS SCT050CB BKN090
      TEMPO 2900/2902 VRB20G30KT -TSRA BKN040CB
     FM290300 06012KT P6SM VCSH SCT040 BKN080
     FM290700 03010KT P6SM BKN080
     FM291600 12007KT P6SM SCT050 BKN100=

USA.gov is the U.S. government's official web portal to all federal, state and local government web resources and services.